Tarija, Tarija Airport (SLTJ)

NameTarija Airport
CityTarija
CountryBolivia
ICAOSLTJ
IATATJA
Altitude1854 m
CoordinatesGoogle Map
Live Air TrafficLiveATC.net
METARSLTJ 271300Z 00000KT 9999 SCT025 OVC070 17/15 Q1024
2020-02-27 13:00:00 Wind: North (0°) 0 m/s - Visibility: > 10000 m - Temperature: 17 °C - Dew point: 15 °C - Humidity: 88.1% - Pressure: 1024 hPa

Sorry, no flights used the airport in this database.